2016 Cux-Wetter.de -Die Nutzung der Wetterdaten nur mit ausdrcklicher Genehmigung
Wetterdaten: Woche 19.11.18 - 25.11.18 (KW47)
Datum Zeit Temp. A. Feuchte A. Luftdruck Regen Wind Richtung Sonnenschein Solar Taupunkt Windchill Windben
19.11.2018 00:00 5,3 C 90 % 1028,7 hPa 0,0 l/m 5,1 km/h (1 Bft) NO 0,00 h 0 W/m 3,7 C 5,3 C 13,1 km/h (3 Bft)
19.11.2018 01:00 4,9 C 91 % 1028,3 hPa 0,0 l/m 4,7 km/h (1 Bft) N-NO 0,00 h 0 W/m 3,6 C 4,9 C 11,4 km/h (2 Bft)
19.11.2018 02:00 4,7 C 92 % 1027,7 hPa 0,0 l/m 5,1 km/h (1 Bft) N-NO 0,00 h 0 W/m 3,5 C 4,6 C 12,2 km/h (2 Bft)
19.11.2018 03:00 4,5 C 92 % 1027,0 hPa 0,0 l/m 5,4 km/h (1 Bft) N-NO 0,00 h 0 W/m 3,4 C 4,5 C 12,8 km/h (3 Bft)
19.11.2018 04:00 4,5 C 92 % 1026,7 hPa 0,0 l/m 5,3 km/h (1 Bft) N-NO 0,00 h 0 W/m 3,4 C 4,5 C 12,2 km/h (2 Bft)
19.11.2018 05:00 4,8 C 93 % 1026,2 hPa 0,0 l/m 5,7 km/h (2 Bft) N 0,00 h 0 W/m 3,8 C 4,7 C 13,4 km/h (3 Bft)
19.11.2018 06:00 4,8 C 93 % 1025,8 hPa 0,0 l/m 6,7 km/h (2 Bft) N 0,00 h 0 W/m 3,7 C 4,3 C 15,6 km/h (3 Bft)
19.11.2018 07:00 4,8 C 93 % 1025,6 hPa 0,0 l/m 6,0 km/h (2 Bft) N-NO 0,00 h 0 W/m 3,8 C 4,8 C 14,7 km/h (3 Bft)
19.11.2018 08:00 5,0 C 94 % 1025,6 hPa 0,0 l/m 6,4 km/h (2 Bft) N 0,00 h 8 W/m 4,0 C 4,7 C 15,4 km/h (3 Bft)
19.11.2018 09:00 5,2 C 93 % 1025,3 hPa 0,0 l/m 6,8 km/h (2 Bft) N 0,00 h 22 W/m 4,2 C 4,7 C 16,1 km/h (3 Bft)
19.11.2018 10:00 5,8 C 92 % 1025,0 hPa 0,0 l/m 6,1 km/h (2 Bft) N-NW 0,00 h 54 W/m 4,6 C 5,6 C 14,2 km/h (3 Bft)
19.11.2018 11:00 6,2 C 91 % 1024,6 hPa 0,0 l/m 5,7 km/h (2 Bft) NO 0,10 h 95 W/m 4,8 C 6,1 C 13,5 km/h (3 Bft)
19.11.2018 12:00 6,8 C 90 % 1023,9 hPa 0,0 l/m 5,9 km/h (2 Bft) N 0,30 h 161 W/m 5,3 C 6,4 C 14,2 km/h (3 Bft)
19.11.2018 13:00 6,9 C 87 % 1023,2 hPa 0,0 l/m 6,1 km/h (2 Bft) N 0,50 h 126 W/m 4,9 C 6,8 C 14,8 km/h (3 Bft)
19.11.2018 14:00 7,0 C 87 % 1022,8 hPa 0,0 l/m 5,7 km/h (2 Bft) N-NO 0,30 h 81 W/m 4,9 C 6,9 C 14,3 km/h (3 Bft)
19.11.2018 15:00 6,8 C 86 % 1022,5 hPa 0,0 l/m 5,9 km/h (2 Bft) NO 0,05 h 27 W/m 4,7 C 6,5 C 14,4 km/h (3 Bft)
19.11.2018 16:00 6,1 C 86 % 1022,5 hPa 0,0 l/m 6,1 km/h (2 Bft) NO 0,05 h 8 W/m 4,0 C 5,8 C 15,1 km/h (3 Bft)
19.11.2018 17:00 5,7 C 88 % 1022,5 hPa 0,0 l/m 4,1 km/h (1 Bft) N-NO 0,00 h 0 W/m 3,9 C 5,7 C 9,4 km/h (2 Bft)
19.11.2018 18:00 5,6 C 88 % 1022,6 hPa 0,0 l/m 6,1 km/h (2 Bft) O 0,00 h 0 W/m 3,7 C 5,1 C 16,5 km/h (3 Bft)
19.11.2018 19:00 5,5 C 86 % 1022,5 hPa 0,0 l/m 6,4 km/h (2 Bft) N-NO 0,00 h 0 W/m 3,3 C 4,9 C 15,8 km/h (3 Bft)
19.11.2018 20:00 5,1 C 87 % 1022,4 hPa 0,0 l/m 6,2 km/h (2 Bft) NO 0,00 h 0 W/m 3,1 C 4,7 C 15,3 km/h (3 Bft)
19.11.2018 21:00 4,6 C 86 % 1022,2 hPa 0,0 l/m 8,6 km/h (2 Bft) O-NO 0,00 h 0 W/m 2,4 C 2,7 C 20,4 km/h (4 Bft)
19.11.2018 22:00 4,6 C 82 % 1022,0 hPa 0,0 l/m 7,7 km/h (2 Bft) N-NO 0,00 h 0 W/m 1,8 C 3,4 C 20,0 km/h (4 Bft)
19.11.2018 23:00 4,9 C 83 % 1021,8 hPa 0,0 l/m 8,3 km/h (2 Bft) O-NO 0,00 h 0 W/m 2,2 C 3,3 C 19,1 km/h (3 Bft)
20.11.2018 00:00 5,2 C 84 % 1021,4 hPa 0,0 l/m 8,7 km/h (2 Bft) O-NO 0,00 h 0 W/m 2,7 C 3,3 C 19,9 km/h (4 Bft)
20.11.2018 01:00 5,0 C 83 % 1020,9 hPa 0,0 l/m 9,1 km/h (2 Bft) N-NO 0,00 h 0 W/m 2,3 C 2,7 C 20,8 km/h (4 Bft)
20.11.2018 02:00 4,4 C 84 % 1020,2 hPa 0,0 l/m 9,0 km/h (2 Bft) NO 0,00 h 0 W/m 2,0 C 2,2 C 21,0 km/h (4 Bft)
20.11.2018 03:00 4,7 C 84 % 1019,4 hPa 0,0 l/m 10,1 km/h (2 Bft) NO 0,00 h 0 W/m 2,3 C 1,7 C 23,6 km/h (4 Bft)
20.11.2018 04:00 4,7 C 83 % 1018,9 hPa 0,0 l/m 10,2 km/h (2 Bft) O-NO 0,00 h 0 W/m 2,1 C 1,8 C 25,0 km/h (4 Bft)
20.11.2018 05:00 4,3 C 82 % 1018,4 hPa 0,0 l/m 11,8 km/h (2 Bft) NO 0,00 h 0 W/m 1,4 C 0,2 C 26,1 km/h (4 Bft)
20.11.2018 06:00 3,6 C 82 % 1018,1 hPa 0,0 l/m 12,0 km/h (2 Bft) NO 0,00 h 0 W/m 0,9 C -0,8 C 26,2 km/h (4 Bft)
20.11.2018 07:00 3,5 C 82 % 1018,3 hPa 0,0 l/m 13,3 km/h (3 Bft) O-NO 0,00 h 0 W/m 0,7 C -1,7 C 30,8 km/h (5 Bft)
20.11.2018 08:00 3,7 C 80 % 1018,5 hPa 0,0 l/m 12,4 km/h (2 Bft) O-NO 0,00 h 8 W/m 0,7 C -0,9 C 29,3 km/h (5 Bft)
20.11.2018 09:00 3,9 C 80 % 1018,0 hPa 0,0 l/m 12,1 km/h (2 Bft) NO 0,00 h 27 W/m 0,8 C -0,5 C 28,8 km/h (5 Bft)
20.11.2018 10:00 4,2 C 80 % 1017,4 hPa 0,0 l/m 12,6 km/h (2 Bft) NO 0,00 h 33 W/m 1,1 C -0,5 C 29,3 km/h (5 Bft)
20.11.2018 11:00 4,3 C 80 % 1017,0 hPa 0,0 l/m 11,1 km/h (2 Bft) NO 0,00 h 43 W/m 1,1 C 0,6 C 26,7 km/h (4 Bft)
20.11.2018 12:00 4,6 C 80 % 1016,1 hPa 0,0 l/m 11,4 km/h (2 Bft) N-NO 0,00 h 44 W/m 1,4 C 0,8 C 24,7 km/h (4 Bft)
20.11.2018 13:00 4,6 C 79 % 1015,6 hPa 0,0 l/m 11,1 km/h (2 Bft) NO 0,00 h 27 W/m 1,4 C 1,0 C 24,5 km/h (4 Bft)
20.11.2018 14:00 4,3 C 79 % 1015,1 hPa 0,0 l/m 11,9 km/h (2 Bft) NO 0,00 h 9 W/m 1,0 C 0,1 C 25,6 km/h (4 Bft)
20.11.2018 15:00 4,2 C 79 % 1014,7 hPa 0,0 l/m 11,3 km/h (2 Bft) NO 0,00 h 6 W/m 0,9 C 0,4 C 26,8 km/h (4 Bft)
20.11.2018 16:00 3,9 C 79 % 1014,4 hPa 0,0 l/m 11,7 km/h (2 Bft) O-NO 0,00 h 0 W/m 0,7 C -0,2 C 29,3 km/h (5 Bft)
20.11.2018 17:00 3,8 C 81 % 1014,5 hPa 0,0 l/m 11,0 km/h (2 Bft) NO 0,00 h 0 W/m 0,8 C 0,1 C 25,4 km/h (4 Bft)
20.11.2018 18:00 3,9 C 81 % 1014,4 hPa 0,0 l/m 11,0 km/h (2 Bft) NO 0,00 h 0 W/m 1,0 C 0,2 C 23,7 km/h (4 Bft)
20.11.2018 19:00 3,9 C 81 % 1014,6 hPa 0,0 l/m 11,8 km/h (2 Bft) NO 0,00 h 0 W/m 0,9 C -0,3 C 25,2 km/h (4 Bft)
20.11.2018 20:00 3,7 C 81 % 1014,5 hPa 0,0 l/m 10,9 km/h (2 Bft) NO 0,00 h 0 W/m 0,8 C 0,1 C 24,5 km/h (4 Bft)
20.11.2018 21:00 3,5 C 80 % 1014,9 hPa 0,0 l/m 9,5 km/h (2 Bft) O 0,00 h 0 W/m 0,4 C 0,9 C 23,1 km/h (4 Bft)
20.11.2018 22:00 3,5 C 79 % 1015,2 hPa 0,0 l/m 10,5 km/h (2 Bft) O 0,00 h 0 W/m 0,2 C 0,1 C 23,6 km/h (4 Bft)
20.11.2018 23:00 3,6 C 80 % 1015,7 hPa 0,0 l/m 9,9 km/h (2 Bft) NO 0,00 h 0 W/m 0,4 C 0,7 C 22,1 km/h (4 Bft)
21.11.2018 00:00 3,6 C 80 % 1015,9 hPa 0,0 l/m 9,8 km/h (2 Bft) NO 0,00 h 0 W/m 0,5 C 0,8 C 23,0 km/h (4 Bft)
21.11.2018 01:00 3,4 C 80 % 1016,0 hPa 0,0 l/m 9,8 km/h (2 Bft) O-NO 0,00 h 0 W/m 0,4 C 0,5 C 21,9 km/h (4 Bft)
21.11.2018 02:00 3,4 C 82 % 1016,2 hPa 0,0 l/m 9,0 km/h (2 Bft) NO 0,00 h 0 W/m 0,6 C 1,1 C 21,5 km/h (4 Bft)
21.11.2018 03:00 3,3 C 83 % 1016,6 hPa 0,0 l/m 8,6 km/h (2 Bft) NO 0,00 h 0 W/m 0,7 C 1,4 C 19,2 km/h (3 Bft)
21.11.2018 04:00 3,2 C 83 % 1016,8 hPa 0,0 l/m 8,3 km/h (2 Bft) O-NO 0,00 h 0 W/m 0,7 C 1,5 C 19,2 km/h (3 Bft)
21.11.2018 05:00 3,2 C 84 % 1017,2 hPa 0,0 l/m 8,2 km/h (2 Bft) NO 0,00 h 0 W/m 0,7 C 1,6 C 20,3 km/h (4 Bft)
21.11.2018 06:00 3,1 C 83 % 1017,8 hPa 0,0 l/m 7,0 km/h (2 Bft) O-SO 0,00 h 0 W/m 0,5 C 2,3 C 16,8 km/h (3 Bft)
21.11.2018 07:00 2,9 C 83 % 1018,4 hPa 0,0 l/m 7,9 km/h (2 Bft) O-NO 0,00 h 0 W/m 0,3 C 1,5 C 18,5 km/h (3 Bft)
21.11.2018 08:00 2,8 C 84 % 1019,0 hPa 0,0 l/m 7,9 km/h (2 Bft) NO 0,00 h 18 W/m 0,3 C 1,3 C 20,2 km/h (4 Bft)
21.11.2018 09:00 2,8 C 83 % 1019,7 hPa 0,0 l/m 7,7 km/h (2 Bft) O 0,00 h 45 W/m 0,2 C 1,5 C 18,2 km/h (3 Bft)
21.11.2018 10:00 2,7 C 83 % 1020,3 hPa 0,0 l/m 7,6 km/h (2 Bft) O-NO 0,00 h 63 W/m 0,1 C 1,5 C 17,9 km/h (3 Bft)
21.11.2018 11:00 3,0 C 82 % 1020,5 hPa 0,0 l/m 8,7 km/h (2 Bft) O 0,45 h 144 W/m 0,2 C 0,9 C 21,5 km/h (4 Bft)
21.11.2018 12:00 3,1 C 82 % 1020,6 hPa 0,0 l/m 8,5 km/h (2 Bft) O-NO 0,05 h 107 W/m 0,4 C 1,3 C 21,1 km/h (4 Bft)
21.11.2018 13:00 3,3 C 81 % 1020,6 hPa 0,0 l/m 8,4 km/h (2 Bft) O 0,25 h 111 W/m 0,4 C 1,5 C 19,7 km/h (3 Bft)
21.11.2018 14:00 3,4 C 81 % 1020,6 hPa 0,0 l/m 7,4 km/h (2 Bft) N-NO 0,05 h 76 W/m 0,5 C 2,4 C 17,6 km/h (3 Bft)
21.11.2018 15:00 3,4 C 81 % 1020,9 hPa 0,0 l/m 7,4 km/h (2 Bft) NO 0,00 h 28 W/m 0,4 C 2,4 C 17,5 km/h (3 Bft)
21.11.2018 16:00 2,9 C 82 % 1021,4 hPa 0,0 l/m 7,1 km/h (2 Bft) NO 0,00 h 5 W/m 0,1 C 1,9 C 17,1 km/h (3 Bft)
21.11.2018 17:00 2,5 C 84 % 1021,6 hPa 0,0 l/m 7,3 km/h (2 Bft) NO 0,00 h 0 W/m 0,0 C 1,4 C 18,9 km/h (3 Bft)
21.11.2018 18:00 2,5 C 84 % 1021,9 hPa 0,0 l/m 7,7 km/h (2 Bft) NO 0,00 h 0 W/m 0,1 C 1,1 C 18,3 km/h (3 Bft)
21.11.2018 19:00 2,5 C 85 % 1022,4 hPa 0,0 l/m 7,8 km/h (2 Bft) O-NO 0,00 h 0 W/m 0,3 C 1,1 C 17,9 km/h (3 Bft)
21.11.2018 20:00 2,3 C 86 % 1022,6 hPa 0,0 l/m 7,2 km/h (2 Bft) O-NO 0,00 h 0 W/m 0,2 C 1,3 C 17,3 km/h (3 Bft)
21.11.2018 21:00 2,2 C 87 % 1022,9 hPa 0,0 l/m 7,2 km/h (2 Bft) O-NO 0,00 h 0 W/m 0,3 C 1,2 C 17,1 km/h (3 Bft)
21.11.2018 22:00 2,1 C 87 % 1022,9 hPa 0,0 l/m 7,4 km/h (2 Bft) NO 0,00 h 0 W/m 0,2 C 1,0 C 17,8 km/h (3 Bft)
21.11.2018 23:00 2,1 C 87 % 1022,9 hPa 0,0 l/m 7,5 km/h (2 Bft) NO 0,00 h 0 W/m 0,2 C 1,0 C 18,3 km/h (3 Bft)
22.11.2018 00:00 2,1 C 88 % 1022,8 hPa 0,0 l/m 7,5 km/h (2 Bft) O 0,00 h 0 W/m 0,3 C 0,9 C 17,6 km/h (3 Bft)
22.11.2018 01:00 2,0 C 88 % 1022,8 hPa 0,0 l/m 7,5 km/h (2 Bft) O-NO 0,00 h 0 W/m 0,3 C 0,9 C 18,2 km/h (3 Bft)
22.11.2018 02:00 2,1 C 87 % 1022,8 hPa 0,0 l/m 6,3 km/h (2 Bft) NO 0,00 h 0 W/m 0,1 C 1,6 C 15,1 km/h (3 Bft)
22.11.2018 03:00 2,0 C 88 % 1022,6 hPa 0,0 l/m 6,4 km/h (2 Bft) O 0,00 h 0 W/m 0,2 C 1,4 C 14,7 km/h (3 Bft)
22.11.2018 04:00 2,0 C 88 % 1022,6 hPa 0,0 l/m 6,3 km/h (2 Bft) O-NO 0,00 h 0 W/m 0,2 C 1,6 C 16,3 km/h (3 Bft)
22.11.2018 05:00 1,8 C 90 % 1022,4 hPa 0,0 l/m 6,0 km/h (2 Bft) NO 0,00 h 0 W/m 0,3 C 1,5 C 15,2 km/h (3 Bft)
22.11.2018 06:00 1,8 C 90 % 1022,3 hPa 0,0 l/m 6,3 km/h (2 Bft) O 0,00 h 0 W/m 0,4 C 1,5 C 15,8 km/h (3 Bft)
22.11.2018 07:00 1,9 C 90 % 1022,3 hPa 0,0 l/m 6,0 km/h (2 Bft) NO 0,00 h 0 W/m 0,4 C 1,7 C 14,6 km/h (3 Bft)
22.11.2018 08:00 1,8 C 90 % 1022,4 hPa 0,0 l/m 5,9 km/h (2 Bft) O 0,00 h 7 W/m 0,4 C 1,6 C 14,9 km/h (3 Bft)
22.11.2018 09:00 2,0 C 90 % 1022,5 hPa 0,0 l/m 5,9 km/h (2 Bft) O-NO 0,00 h 16 W/m 0,6 C 1,9 C 14,7 km/h (3 Bft)
22.11.2018 10:00 2,3 C 90 % 1022,6 hPa 0,0 l/m 5,9 km/h (2 Bft) NO 0,00 h 48 W/m 0,8 C 2,0 C 14,6 km/h (3 Bft)
22.11.2018 11:00 2,6 C 89 % 1022,3 hPa 0,0 l/m 6,3 km/h (2 Bft) NO 0,00 h 66 W/m 0,9 C 2,3 C 15,6 km/h (3 Bft)
22.11.2018 12:00 2,8 C 87 % 1022,0 hPa 0,0 l/m 6,9 km/h (2 Bft) O-SO 0,00 h 60 W/m 0,9 C 2,0 C 16,5 km/h (3 Bft)
22.11.2018 13:00 2,8 C 87 % 1021,7 hPa 0,0 l/m 6,0 km/h (2 Bft) O 0,00 h 34 W/m 0,8 C 2,5 C 15,0 km/h (3 Bft)
22.11.2018 14:00 2,8 C 86 % 1021,4 hPa 0,0 l/m 6,2 km/h (2 Bft) O 0,00 h 23 W/m 0,8 C 2,5 C 15,3 km/h (3 Bft)
22.11.2018 15:00 2,8 C 86 % 1021,2 hPa 0,0 l/m 5,3 km/h (1 Bft) O-NO 0,00 h 11 W/m 0,7 C 2,7 C 12,9 km/h (3 Bft)
22.11.2018 16:00 2,7 C 87 % 1021,3 hPa 0,0 l/m 5,0 km/h (1 Bft) SO 0,00 h 0 W/m 0,8 C 2,7 C 12,9 km/h (3 Bft)
22.11.2018 17:00 2,7 C 88 % 1021,3 hPa 0,0 l/m 4,5 km/h (1 Bft) O-SO 0,00 h 0 W/m 0,9 C 2,7 C 11,6 km/h (2 Bft)
22.11.2018 18:00 2,7 C 89 % 1021,3 hPa 0,0 l/m 4,9 km/h (1 Bft) O 0,00 h 0 W/m 1,0 C 2,7 C 12,8 km/h (3 Bft)
22.11.2018 19:00 2,7 C 89 % 1021,4 hPa 0,0 l/m 5,2 km/h (1 Bft) O-SO 0,00 h 0 W/m 1,1 C 2,6 C 12,4 km/h (2 Bft)
22.11.2018 20:00 2,7 C 89 % 1021,4 hPa 0,0 l/m 5,6 km/h (2 Bft) SO 0,00 h 0 W/m 1,0 C 2,5 C 14,9 km/h (3 Bft)
22.11.2018 21:00 2,6 C 89 % 1021,4 hPa 0,0 l/m 4,9 km/h (1 Bft) O-SO 0,00 h 0 W/m 1,0 C 2,6 C 12,3 km/h (2 Bft)
22.11.2018 22:00 2,7 C 90 % 1021,4 hPa 0,0 l/m 5,3 km/h (1 Bft) O-SO 0,00 h 0 W/m 1,2 C 2,6 C 12,3 km/h (2 Bft)
22.11.2018 23:00 2,6 C 90 % 1021,2 hPa 0,0 l/m 4,1 km/h (1 Bft) O 0,00 h 0 W/m 1,2 C 2,6 C 10,2 km/h (2 Bft)
23.11.2018 00:00 2,5 C 91 % 1021,2 hPa 0,0 l/m 4,4 km/h (1 Bft) SO 0,00 h 0 W/m 1,2 C 2,5 C 11,3 km/h (2 Bft)
23.11.2018 01:00 2,5 C 91 % 1021,0 hPa 0,0 l/m 4,8 km/h (1 Bft) SO 0,00 h 0 W/m 1,1 C 2,4 C 11,6 km/h (2 Bft)
23.11.2018 02:00 2,5 C 91 % 1020,8 hPa 0,0 l/m 5,3 km/h (1 Bft) O-SO 0,00 h 0 W/m 1,2 C 2,4 C 12,8 km/h (3 Bft)
23.11.2018 03:00 2,5 C 92 % 1020,5 hPa 0,0 l/m 5,4 km/h (1 Bft) O-SO 0,00 h 0 W/m 1,3 C 2,4 C 12,9 km/h (3 Bft)
23.11.2018 04:00 2,4 C 92 % 1020,3 hPa 0,0 l/m 4,7 km/h (1 Bft) O-SO 0,00 h 0 W/m 1,2 C 2,4 C 11,8 km/h (2 Bft)
23.11.2018 05:00 2,3 C 92 % 1020,0 hPa 0,0 l/m 5,2 km/h (1 Bft) O-SO 0,00 h 0 W/m 1,2 C 2,3 C 11,8 km/h (2 Bft)
23.11.2018 06:00 2,3 C 92 % 1019,9 hPa 0,0 l/m 4,4 km/h (1 Bft) O-SO 0,00 h 0 W/m 1,1 C 2,3 C 10,7 km/h (2 Bft)
23.11.2018 07:00 2,3 C 92 % 1019,8 hPa 0,0 l/m 4,0 km/h (1 Bft) O 0,00 h 0 W/m 1,1 C 2,3 C 10,4 km/h (2 Bft)
23.11.2018 08:00 2,3 C 92 % 1019,9 hPa 0,0 l/m 4,2 km/h (1 Bft) SO 0,00 h 5 W/m 1,1 C 2,3 C 11,1 km/h (2 Bft)
23.11.2018 09:00 2,4 C 92 % 1019,9 hPa 0,0 l/m 4,4 km/h (1 Bft) O-SO 0,00 h 15 W/m 1,2 C 2,4 C 11,0 km/h (2 Bft)
23.11.2018 10:00 2,6 C 92 % 1019,6 hPa 0,0 l/m 4,7 km/h (1 Bft) SO 0,00 h 51 W/m 1,5 C 2,6 C 11,4 km/h (2 Bft)
23.11.2018 11:00 3,0 C 92 % 1019,3 hPa 0,0 l/m 5,6 km/h (2 Bft) SO 0,00 h 70 W/m 1,8 C 2,8 C 12,3 km/h (2 Bft)
23.11.2018 12:00 3,3 C 91 % 1018,9 hPa 0,0 l/m 4,0 km/h (1 Bft) SO 0,00 h 46 W/m 1,9 C 3,3 C 9,6 km/h (2 Bft)
23.11.2018 13:00 3,3 C 90 % 1018,4 hPa 0,0 l/m 3,9 km/h (1 Bft) SO 0,00 h 34 W/m 1,8 C 3,3 C 8,9 km/h (2 Bft)
23.11.2018 14:00 3,4 C 91 % 1018,0 hPa 0,0 l/m 3,7 km/h (1 Bft) SO 0,00 h 28 W/m 2,1 C 3,4 C 8,4 km/h (2 Bft)
23.11.2018 15:00 3,5 C 91 % 1017,8 hPa 0,0 l/m 2,1 km/h (1 Bft) SO 0,00 h 13 W/m 2,1 C 3,5 C 4,9 km/h (1 Bft)
23.11.2018 16:00 3,4 C 91 % 1017,6 hPa 0,0 l/m 1,5 km/h (1 Bft) SO 0,00 h 5 W/m 2,1 C 3,4 C 3,6 km/h (1 Bft)
23.11.2018 17:00 3,3 C 91 % 1017,4 hPa 0,0 l/m 2,0 km/h (1 Bft) SO 0,00 h 0 W/m 2,0 C 3,3 C 4,2 km/h (1 Bft)
23.11.2018 18:00 3,2 C 91 % 1017,1 hPa 0,0 l/m 1,3 km/h (1 Bft) SO 0,00 h 0 W/m 1,9 C 3,2 C 3,0 km/h (1 Bft)
23.11.2018 19:00 3,2 C 91 % 1016,9 hPa 0,0 l/m 1,4 km/h (1 Bft) SO 0,00 h 0 W/m 1,9 C 3,2 C 3,7 km/h (1 Bft)
23.11.2018 20:00 3,3 C 92 % 1016,6 hPa 0,0 l/m 2,2 km/h (1 Bft) SO 0,00 h 0 W/m 2,1 C 3,3 C 4,9 km/h (1 Bft)
23.11.2018 21:00 3,3 C 92 % 1016,2 hPa 0,0 l/m 1,5 km/h (1 Bft) SO 0,00 h 0 W/m 2,1 C 3,3 C 3,6 km/h (1 Bft)
23.11.2018 22:00 3,2 C 92 % 1015,8 hPa 0,0 l/m 0,4 km/h (0 Bft) SO 0,00 h 0 W/m 2,1 C 3,2 C 1,4 km/h (1 Bft)
23.11.2018 23:00 3,2 C 92 % 1015,5 hPa 0,0 l/m 0,0 km/h (0 Bft) N 0,00 h 0 W/m 2,1 C 3,2 C 0,0 km/h (0 Bft)
24.11.2018 00:00 3,2 C 93 % 1014,9 hPa 0,0 l/m 1,2 km/h (1 Bft) S-SO 0,00 h 0 W/m 2,2 C 3,2 C 2,5 km/h (1 Bft)
24.11.2018 01:00 2,7 C 93 % 1014,6 hPa 0,0 l/m 1,7 km/h (1 Bft) S-SO 0,00 h 0 W/m 1,6 C 2,7 C 4,2 km/h (1 Bft)
24.11.2018 02:00 2,4 C 93 % 1014,5 hPa 0,0 l/m 0,7 km/h (0 Bft) S-SO 0,00 h 0 W/m 1,4 C 2,4 C 2,3 km/h (1 Bft)
24.11.2018 03:00 1,4 C 92 % 1014,2 hPa 0,0 l/m 0,0 km/h (0 Bft) N 0,00 h 0 W/m 0,3 C 1,4 C 0,0 km/h (0 Bft)
24.11.2018 04:00 0,4 C 92 % 1014,0 hPa 0,0 l/m 0,0 km/h (0 Bft) N 0,00 h 0 W/m -0,8 C 0,4 C 0,0 km/h (0 Bft)
24.11.2018 05:00 -0,3 C 93 % 1013,8 hPa 0,0 l/m 0,0 km/h (0 Bft) N 0,00 h 0 W/m -1,3 C -0,3 C 0,0 km/h (0 Bft)
24.11.2018 06:00 0,2 C 94 % 1013,5 hPa 0,0 l/m 0,4 km/h (0 Bft) SO 0,00 h 0 W/m -0,7 C 0,2 C 1,6 km/h (1 Bft)
24.11.2018 07:00 1,3 C 95 % 1013,1 hPa 0,0 l/m 1,4 km/h (1 Bft) N 0,00 h 0 W/m 0,6 C 1,3 C 4,2 km/h (1 Bft)
24.11.2018 08:00 1,3 C 95 % 1013,2 hPa 0,0 l/m 2,1 km/h (1 Bft) N-NO 0,00 h 7 W/m 0,6 C 1,3 C 5,1 km/h (1 Bft)
24.11.2018 09:00 0,8 C 95 % 1013,4 hPa 0,0 l/m 1,1 km/h (1 Bft) NO 0,00 h 13 W/m 0,1 C 0,8 C 3,8 km/h (1 Bft)
24.11.2018 10:00 1,5 C 95 % 1013,3 hPa 0,0 l/m 0,8 km/h (0 Bft) O-SO 0,00 h 38 W/m 0,8 C 1,5 C 2,7 km/h (1 Bft)
24.11.2018 11:00 2,0 C 96 % 1013,0 hPa 0,0 l/m 1,5 km/h (1 Bft) NO 0,00 h 54 W/m 1,4 C 2,0 C 4,3 km/h (1 Bft)
24.11.2018 12:00 2,4 C 95 % 1012,6 hPa 0,0 l/m 2,8 km/h (1 Bft) NO 0,00 h 43 W/m 1,7 C 2,4 C 6,7 km/h (2 Bft)
24.11.2018 13:00 2,5 C 94 % 1012,4 hPa 0,0 l/m 2,5 km/h (1 Bft) O-NO 0,00 h 20 W/m 1,6 C 2,5 C 6,1 km/h (2 Bft)
24.11.2018 14:00 2,6 C 94 % 1012,2 hPa 0,0 l/m 2,1 km/h (1 Bft) NO 0,00 h 17 W/m 1,7 C 2,6 C 5,4 km/h (2 Bft)
24.11.2018 15:00 2,7 C 94 % 1012,0 hPa 0,0 l/m 1,8 km/h (1 Bft) N-NO 0,00 h 9 W/m 1,8 C 2,7 C 4,1 km/h (1 Bft)
24.11.2018 16:00 2,9 C 94 % 1012,1 hPa 0,0 l/m 2,1 km/h (1 Bft) NO 0,00 h 0 W/m 2,0 C 2,9 C 4,7 km/h (1 Bft)
24.11.2018 17:00 3,0 C 94 % 1011,9 hPa 0,0 l/m 2,7 km/h (1 Bft) NO 0,00 h 0 W/m 2,2 C 3,0 C 6,8 km/h (2 Bft)
24.11.2018 18:00 3,3 C 94 % 1012,0 hPa 0,0 l/m 3,9 km/h (1 Bft) NO 0,00 h 0 W/m 2,5 C 3,3 C 10,5 km/h (2 Bft)
24.11.2018 19:00 3,1 C 94 % 1012,2 hPa 0,0 l/m 3,3 km/h (1 Bft) SO 0,00 h 0 W/m 2,3 C 3,1 C 9,1 km/h (2 Bft)
24.11.2018 20:00 3,1 C 94 % 1012,3 hPa 0,0 l/m 3,4 km/h (1 Bft) NO 0,00 h 0 W/m 2,2 C 3,1 C 8,9 km/h (2 Bft)
24.11.2018 21:00 3,4 C 93 % 1012,3 hPa 0,0 l/m 4,1 km/h (1 Bft) O-NO 0,00 h 0 W/m 2,3 C 3,4 C 10,0 km/h (2 Bft)
24.11.2018 22:00 3,7 C 92 % 1012,2 hPa 0,0 l/m 4,3 km/h (1 Bft) O 0,00 h 0 W/m 2,5 C 3,7 C 11,3 km/h (2 Bft)
24.11.2018 23:00 3,8 C 91 % 1012,2 hPa 0,0 l/m 3,8 km/h (1 Bft) O-NO 0,00 h 0 W/m 2,5 C 3,8 C 9,6 km/h (2 Bft)
25.11.2018 00:00 3,8 C 91 % 1012,1 hPa 0,0 l/m 3,3 km/h (1 Bft) N-NO 0,00 h 0 W/m 2,5 C 3,8 C 7,7 km/h (2 Bft)
25.11.2018 01:00 3,8 C 91 % 1011,9 hPa 0,0 l/m 3,9 km/h (1 Bft) O-NO 0,00 h 0 W/m 2,5 C 3,8 C 9,3 km/h (2 Bft)
25.11.2018 02:00 3,8 C 91 % 1011,8 hPa 0,0 l/m 3,6 km/h (1 Bft) O-NO 0,00 h 0 W/m 2,4 C 3,8 C 8,2 km/h (2 Bft)
25.11.2018 03:00 3,7 C 91 % 1011,6 hPa 0,0 l/m 4,6 km/h (1 Bft) O-NO 0,00 h 0 W/m 2,4 C 3,7 C 10,9 km/h (2 Bft)
25.11.2018 04:00 3,9 C 91 % 1011,5 hPa 0,0 l/m 4,0 km/h (1 Bft) N-NO 0,00 h 0 W/m 2,5 C 3,9 C 9,2 km/h (2 Bft)
25.11.2018 05:00 3,8 C 91 % 1011,5 hPa 0,0 l/m 3,8 km/h (1 Bft) N-NO 0,00 h 0 W/m 2,5 C 3,8 C 8,8 km/h (2 Bft)
25.11.2018 06:00 3,9 C 91 % 1011,5 hPa 0,0 l/m 4,1 km/h (1 Bft) N-NO 0,00 h 0 W/m 2,6 C 3,9 C 10,5 km/h (2 Bft)
25.11.2018 07:00 4,1 C 92 % 1011,9 hPa 0,0 l/m 2,6 km/h (1 Bft) NO 0,00 h 0 W/m 2,9 C 4,1 C 6,3 km/h (2 Bft)
25.11.2018 08:00 4,1 C 92 % 1012,3 hPa 0,0 l/m 2,0 km/h (1 Bft) NO 0,00 h 8 W/m 2,9 C 4,1 C 4,3 km/h (1 Bft)
25.11.2018 09:00 4,4 C 92 % 1012,6 hPa 0,0 l/m 2,4 km/h (1 Bft) N-NO 0,00 h 28 W/m 3,2 C 4,4 C 5,2 km/h (1 Bft)
25.11.2018 10:00 4,8 C 93 % 1012,7 hPa 0,0 l/m 3,3 km/h (1 Bft) NO 0,00 h 25 W/m 3,7 C 4,8 C 7,3 km/h (2 Bft)
25.11.2018 11:00 5,0 C 93 % 1012,7 hPa 0,0 l/m 3,8 km/h (1 Bft) N 0,00 h 33 W/m 4,0 C 5,0 C 8,4 km/h (2 Bft)
25.11.2018 12:00 5,2 C 93 % 1012,4 hPa 0,0 l/m 4,1 km/h (1 Bft) N-NO 0,00 h 41 W/m 4,2 C 5,2 C 9,5 km/h (2 Bft)
25.11.2018 13:00 5,4 C 93 % 1012,5 hPa 0,0 l/m 3,8 km/h (1 Bft) N 0,00 h 34 W/m 4,4 C 5,4 C 7,9 km/h (2 Bft)
25.11.2018 14:00 5,3 C 93 % 1012,4 hPa 0,0 l/m 3,6 km/h (1 Bft) N 0,00 h 17 W/m 4,3 C 5,3 C 8,0 km/h (2 Bft)
25.11.2018 15:00 5,2 C 93 % 1012,2 hPa 0,0 l/m 4,2 km/h (1 Bft) N 0,00 h 9 W/m 4,2 C 5,2 C 8,0 km/h (2 Bft)
25.11.2018 16:00 5,1 C 93 % 1012,1 hPa 0,0 l/m 5,1 km/h (1 Bft) N 0,00 h 0 W/m 4,1 C 5,1 C 10,7 km/h (2 Bft)
25.11.2018 17:00 5,2 C 94 % 1012,4 hPa 0,0 l/m 3,7 km/h (1 Bft) N-NO 0,00 h 0 W/m 4,3 C 5,2 C 7,5 km/h (2 Bft)
25.11.2018 18:00 5,2 C 94 % 1012,6 hPa 0,0 l/m 2,8 km/h (1 Bft) O-NO 0,00 h 0 W/m 4,3 C 5,2 C 6,6 km/h (2 Bft)
25.11.2018 19:00 5,2 C 94 % 1012,9 hPa 0,0 l/m 3,6 km/h (1 Bft) NO 0,00 h 0 W/m 4,3 C 5,2 C 8,6 km/h (2 Bft)
25.11.2018 20:00 4,9 C 94 % 1013,2 hPa 0,0 l/m 3,3 km/h (1 Bft) NO 0,00 h 0 W/m 4,0 C 4,9 C 7,7 km/h (2 Bft)
25.11.2018 21:00 4,6 C 94 % 1013,3 hPa 0,0 l/m 2,5 km/h (1 Bft) N-NO 0,00 h 0 W/m 3,7 C 4,6 C 6,0 km/h (2 Bft)
25.11.2018 22:00 4,1 C 93 % 1013,3 hPa 0,0 l/m 2,1 km/h (1 Bft) N-NO 0,00 h 0 W/m 3,0 C 4,1 C 5,1 km/h (1 Bft)
25.11.2018 23:00 3,8 C 94 % 1013,2 hPa 0,0 l/m 3,7 km/h (1 Bft) N-NO 0,00 h 0 W/m 2,9 C 3,8 C 8,4 km/h (2 Bft)
Min-Datum _ 24.11.18 20.11.18 25.11.18 - 23.11.18 - - - 24.11.18 20.11.18 23.11.18
_ Min-Zeit 05:54 15:33 04:21 - 18:42 - - - 05:54 07:36 18:45
Minimum _ -0,5 C 78 % 1011,4 hPa - 0,0 km/h (0 Bft) - - - -1,5 C -3,7 C 0,0 km/h (0 Bft)
Max-Datum _ 19.11.18 24.11.18 19.11.18 19.11.18 20.11.18 - 19.11.18 19.11.18 19.11.18 19.11.18 20.11.18
_ Max-Zeit 13:54 10:03 00:06 00:00 08:30 - 11:36 12:42 12:48 13:57 11:18
Maximum _ 7,4 C 96 % 1029,0 hPa 0,0 l/m 17,0 km/h
O-NO (3 Bft)
- 0,05 h 367 W/m 5,5 C 7,4 C 53,1 km/h
O-NO (7 Bft)
Durchschnitt _ 3,5 C 89 % 1018,2 hPa #0,0 l/m 5,7 km/h (2 Bft) NO #2:06 h 39 W/m 1,8 C 2,7 C 13,5 km/h (3 Bft)
2018 Cux-Wetter.de -Die Nutzung der Wetterdaten nur mit ausdrcklicher Genehmigung